• Join FlightAware (Why Join?)
  • Login
  • US Flag 
01:33PM EDT


 

Airport Tracker/Info


-or-


 

Live Flight TrackerFlight Track Log ✈ N306PC ✈ 20-Jun-2014 ✈ 4G4 - KPWM

Flight Track Log - Related Links

Times and Time Zones

All times are in EDT time to prevent confusion due to time zone crossing. See the N306PC flight status page for this flight to view local times or setup timezone preferences in your user account.

Time Position Orientation Groundspeed Altitude Reporting Facility
EDT Latitude Longitude Course Direction KTS MPH feet Rate Location/Type
01:20PM 40.9894 -80.6256 41° Northeast 175 201 2,400  Level Cleveland Center
01:21PM 41.0181 -80.5931 41° Northeast 167 192 3,900 1,440 Climbing Cleveland Center
01:22PM 41.0367 -80.5319 68° East 174 200 5,400 1,380 Climbing Cleveland Center
01:23PM 41.0544 -80.4731 68° East 174 200 6,800 1,200 Climbing Cleveland Center
01:24PM 41.0742 -80.4111 67° East 177 204 8,000 1,080 Climbing Cleveland Center
01:25PM 41.0942 -80.3469 68° East 184 212 9,100 1,200 Climbing Cleveland Center
01:26PM 41.1192 -80.2669 67° East 192 221 10,500 1,200 Climbing Cleveland Center
01:27PM 41.1394 -80.2003 68° East 192 221 11,700 1,020 Climbing Cleveland Center
01:28PM 41.1608 -80.1306 68° East 201 231 12,700 960 Climbing Cleveland Center
01:29PM 41.1819 -80.0589 69° East 205 236 13,700 960 Climbing Cleveland Center
01:30PM 41.2050 -79.9758 70° East 210 242 14,800 900 Climbing Cleveland Center
01:31PM 41.2258 -79.9014 70° East 213 245 15,600 720 Climbing Cleveland Center
01:32PM 41.2475 -79.8267 69° East 215 247 16,300 660 Climbing Cleveland Center
01:33PM 41.2686 -79.7511 70° East 217 250 17,000 660 Climbing Cleveland Center
01:34PM 41.2944 -79.6578 70° East 221 254 17,700 600 Climbing Cleveland Center
01:35PM 41.3142 -79.5883 69° East 221 254 18,300 540 Climbing Cleveland Center
01:36PM 41.3361 -79.5106 69° East 222 255 18,900 540 Climbing Cleveland Center
01:38PM 41.3578 -79.4314 70° East 224 258 19,500 480 Climbing Cleveland Center
01:39PM 41.3839 -79.3358 70° East 225 259 20,000 480 Climbing Cleveland Center
01:40PM 41.4094 -79.2467 69° East 237 273 20,500 480 Climbing Cleveland Center
01:41PM 41.4322 -79.1611 70° East 243 280 21,100 540 Climbing Cleveland Center
01:42PM 41.4542 -79.0800 70° East 238 274 21,700 480 Climbing Cleveland Center
01:43PM 41.4767 -78.9992 70° East 235 270 22,200 480 Climbing Cleveland Center
01:44PM 41.4986 -78.9169 70° East 235 270 22,700 420 Climbing Cleveland Center
01:45PM 41.5211 -78.8356 70° East 235 270 23,100 420 Climbing Cleveland Center
01:46PM 41.5478 -78.7350 70° East 236 272 23,600 360 Climbing Cleveland Center
01:47PM 41.5703 -78.6503 70° East 239 275 23,900 240 Climbing Cleveland Center
01:48PM 41.5942 -78.5656 69° East 242 278 24,200 240 Climbing Cleveland Center
01:49PM 41.6164 -78.4811 71° East 242 278 24,500 300 Climbing Cleveland Center
01:50PM 41.6389 -78.3931 71° East 247 284 24,900 240 Climbing Cleveland Center
01:51PM 41.6675 -78.2886 70° East 249 287 25,000  Climbing Cleveland Center
01:52PM 41.6917 -78.1958 71° East 259 298 25,000  Level Cleveland Center
01:53PM 41.7167 -78.1011 70° East 267 307 25,000  Level Cleveland Center
01:54PM 41.7417 -78.0047 71° East 275 316 25,000  Level Cleveland Center
01:55PM 41.7672 -77.9086 70° East 275 316 25,000  Level Cleveland Center
01:56PM 41.7964 -77.7919 71° East 275 316 25,000  Level Cleveland Center
01:57PM 41.8214 -77.6961 71° East 275 316 25,000  Level Cleveland Center
01:58PM 41.8456 -77.5997 71° East 275 316 25,000  Level Cleveland Center
01:59PM 41.8703 -77.5064 70° East 269 310 25,000  Level Cleveland Center
02:00PM 41.8975 -77.4053 70° East 270 311 25,000  Level Cleveland Center
02:01PM 41.9214 -77.3094 71° East 270 311 25,000  Level Cleveland Center
02:02PM 41.9456 -77.2133 71° East 271 312 25,000  Level Cleveland Center
02:03PM 41.9747 -77.0964 71° East 273 314 25,000  Level Cleveland Center
02:04PM 41.9986 -77.0000 72° East 273 314 25,000  Level Cleveland Center
02:05PM 42.0228 -76.9025 72° East 274 315 25,000  Level Cleveland Center
02:07PM 42.0475 -76.8069 71° East 275 316 25,000  Level Cleveland Center
02:08PM 42.0714 -76.7086 72° East 275 316 25,000  Level Cleveland Center
02:09PM 42.1008 -76.5919 71° East 275 316 25,000  Level Cleveland Center
02:10PM 42.1250 -76.4956 71° East 275 316 25,000  Level Cleveland Center
02:12PM 42.1797 -76.2714 72° East 272 313 25,000  Level Boston Center
02:13PM 42.2042 -76.1742 71° East 272 313 25,000  Level Boston Center
02:14PM 42.2269 -76.0764 73° East 273 314 25,000  Level Boston Center
02:15PM 42.2542 -75.9597 72° East 273 314 25,000  Level Boston Center
02:16PM 42.2789 -75.8614 71° East 274 315 25,000  Level Boston Center
02:17PM 42.3022 -75.7644 72° East 274 315 25,000  Level Boston Center
02:18PM 42.3300 -75.6706 68° East 272 313 25,000  Level Boston Center
02:19PM 42.3553 -75.5739 70° East 272 313 25,000  Level Boston Center
02:20PM 42.3814 -75.4781 70° East 272 313 25,000  Level Boston Center
02:21PM 42.4078 -75.3811 70° East 273 314 25,000  Level Boston Center
02:22PM 42.4400 -75.2656 69° East 273 314 25,000  Level Boston Center
02:23PM 42.4656 -75.1700 70° East 273 314 25,000  Level Boston Center
02:24PM 42.4914 -75.0728 70° East 273 314 25,000  Level Boston Center
02:25PM 42.5167 -74.9781 70° East 272 313 25,000  Level Boston Center
02:26PM 42.5428 -74.8819 70° East 271 312 25,000  Level Boston Center
02:27PM 42.5708 -74.7744 70° East 268 308 25,000  Level Boston Center
02:29PM 42.5958 -74.6803 70° East 268 308 25,000  Level Boston Center
02:30PM 42.6217 -74.5828 70° East 270 311 25,000  Level Boston Center
02:31PM 42.6472 -74.4858 70° East 270 311 25,000  Level Boston Center
02:32PM 42.6728 -74.3903 70° East 270 311 25,000  Level Boston Center
02:33PM 42.6972 -74.2944 71° East 270 311 25,000  Level Boston Center
02:34PM 42.7208 -74.1997 71° East 270 311 25,000  Level Boston Center
02:35PM 42.7511 -74.0867 70° East 268 308 25,000  Level Boston Center
02:36PM 42.7758 -73.9906 71° East 268 308 25,000  Level Boston Center
02:37PM 42.7997 -73.8964 71° East 267 307 25,000  Level Boston Center
02:38PM 42.8244 -73.8000 71° East 266 306 25,000  Level Boston Center
02:39PM 42.8478 -73.7042 72° East 269 310 25,000  Level Boston Center
02:40PM 42.8731 -73.6067 70° East 269 310 25,000  Level Boston Center
02:41PM 42.8978 -73.5114 70° East 269 310 25,000 -60 Level Boston Center
02:42PM 42.9217 -73.4156 71° East 269 310 24,900 -360 Descending Boston Center
02:43PM 42.9514 -73.2967 71° East 274 315 24,300 -480 Descending Boston Center
02:44PM 42.9772 -73.1931 71° East 283 326 24,000 -180 Descending Boston Center
02:45PM 43.0019 -73.0944 71° East 279 321 24,000  Level Boston Center
02:46PM 43.0247 -72.9989 72° East 271 312 24,000 -240 Level Boston Center
02:47PM 43.0508 -72.8936 71° East 267 307 23,600 -480 Descending Boston Center
02:48PM 43.0756 -72.7961 71° East 268 308 23,100 -600 Descending Boston Center
02:49PM 43.1006 -72.6906 72° East 287 330 22,500 -660 Descending Boston Center
02:50PM 43.1281 -72.5783 71° East 296 341 21,800 -840 Descending Boston Center
02:51PM 43.1550 -72.4650 72° East 296 341 20,900 -960 Descending Boston Center
02:52PM 43.1814 -72.3572 71° East 296 341 19,900 -1,020 Descending Boston Center
02:53PM 43.2094 -72.2419 71° East 297 342 18,800 -960 Descending Boston Center
02:54PM 43.2344 -72.1358 72° East 296 341 18,000 -840 Descending Boston Center
02:55PM 43.2606 -72.0211 73° East 294 338 17,100 -900 Descending Boston Center
02:56PM 43.2861 -71.9153 72° East 294 338 16,300 -780 Descending Boston Center
02:57PM 43.3100 -71.8108 73° East 292 336 15,500 -840 Descending Boston Center
02:58PM 43.3347 -71.7017 73° East 282 325 14,600 -840 Descending Boston Center
02:59PM 43.3597 -71.5978 72° East 282 325 13,800 -840 Descending Boston Center
03:00PM 43.3847 -71.4856 73° East 283 326 12,900 -840 Descending Boston Center
03:01PM 43.4092 -71.3800 72° East 286 329 12,100 -840 Descending Boston Center
03:02PM 43.4314 -71.2819 73° East 273 314 11,300 -540 Descending Boston Center
03:04PM 43.4539 -71.1836 72° East 256 295 11,100 -120 Descending Boston Center
03:05PM 43.4772 -71.0933 70° East 253 291 11,100  Level Boston Center
03:06PM 43.5014 -70.9992 70° East 256 295 11,100 -240 Level Boston Center
03:07PM 43.5275 -70.9019 70° East 254 292 10,700 -660 Descending Boston Center
03:08PM 43.5219 -70.8189 95° East 226 260 9,800 -960 Descending Boston Center
03:09PM 43.5156 -70.7369 96° East 218 251 8,800 -1,020 Descending Boston Center
03:10PM 43.5111 -70.6558 94° East 200 230 7,700 -1,080 Descending Boston Center
03:11PM 43.5153 -70.5822 86° East 193 222 6,700 -1,020 Descending Boston Center
03:12PM 43.5178 -70.5008 88° East 209 241 5,700 -780 Descending Boston Center
03:13PM 43.5194 -70.4100 89° East 216 249 5,100 -600 Descending Boston Center
03:14PM 43.5208 -70.3247 89° East 220 253 4,500 -780 Descending Boston Center
03:15PM 43.5433 -70.2417 69° East 221 254 3,600 -960 Descending Boston Center
03:16PM 43.5692 -70.1756 62° Northeast 200 230 2,600 -840 Descending Boston Center
03:17PM 43.6094 -70.1375 34° Northeast 202 232 2,000 -480 Descending Boston Center
03:18PM 43.6403 -70.1881 310° West 199 229 1,700 -360 Descending Boston Center
03:19PM 43.6528 -70.2283 293° West 113 130 1,300 -420 Descending Boston Center
03:20PM 43.6414 -70.2675 248° West 121 139 900 -600 Descending Boston Center
03:21PM 43.6442 -70.3061 276° West 104 120 200 -720 Descending Boston Center
03:23PM 43.6456 -70.3086 272° West  Level Estimated
03:30PM 43.6456 -70.3086 101° East  Level Estimated